Time;durP1;ratioP1;P1;durP2;ratioP2;P2;SDS_P1;SDS_P2;PMS_P1;PMS_P2;Temp;Humidity;BMP_temperature;BMP_pressure;BME280_temperature;BME280_humidity;BME280_pressure;Samples;Min_cycle;Max_cycle;Signal;HPM_P1;HPM_P2
2021/06/18 00:02:04;;;;;;;2.80;2.60;;;20.60;59.20;;;;;;4995289;28;20048;-69
2021/06/18 00:04:30;;;;;;;3.17;2.63;;;20.50;59.10;;;;;;4997525;28;20096;-69
2021/06/18 00:06:56;;;;;;;3.72;2.35;;;20.50;59.20;;;;;;4998109;28;20137;-69
2021/06/18 00:09:22;;;;;;;5.60;2.70;;;20.50;59.20;;;;;;4997630;28;20045;-69
2021/06/18 00:11:47;;;;;;;3.92;2.53;;;20.40;59.20;;;;;;4995354;28;20532;-69
2021/06/18 00:14:13;;;;;;;2.72;2.50;;;20.30;59.10;;;;;;4996280;28;20066;-69
2021/06/18 00:16:39;;;;;;;2.78;2.47;;;20.30;59.30;;;;;;4997053;28;20457;-69
2021/06/18 00:19:04;;;;;;;2.67;2.47;;;20.20;59.40;;;;;;4996479;28;20805;-69
2021/06/18 00:21:30;;;;;;;4.97;2.60;;;20.20;59.50;;;;;;4994134;28;20088;-69
2021/06/18 00:23:56;;;;;;;2.75;2.50;;;20.20;59.60;;;;;;4995316;28;20038;-69
2021/06/18 00:26:21;;;;;;;3.17;2.50;;;20.20;59.80;;;;;;4995409;28;20497;-69
2021/06/18 00:28:47;;;;;;;3.08;2.72;;;20.20;59.90;;;;;;4993832;28;20386;-69
2021/06/18 00:31:13;;;;;;;3.00;2.70;;;20.20;60.00;;;;;;4999490;28;20050;-69
2021/06/18 00:33:38;;;;;;;2.58;2.38;;;20.20;60.10;;;;;;4996546;28;20034;-69
2021/06/18 00:36:04;;;;;;;3.17;2.88;;;20.20;60.20;;;;;;4995761;28;20036;-69
2021/06/18 00:38:30;;;;;;;3.00;2.70;;;20.10;60.30;;;;;;4992079;28;20154;-69
2021/06/18 00:40:56;;;;;;;3.88;2.80;;;20.10;60.50;;;;;;4998518;28;20604;-69
2021/06/18 00:43:22;;;;;;;4.43;2.97;;;20.00;60.60;;;;;;4994315;28;20049;-69
2021/06/18 00:45:47;;;;;;;3.40;3.08;;;20.00;60.80;;;;;;4999288;28;20084;-69
2021/06/18 00:48:13;;;;;;;3.30;3.00;;;19.90;61.10;;;;;;4993983;28;20075;-69
2021/06/18 00:50:41;;;;;;;4.90;3.38;;;19.90;61.30;;;;;;4993211;28;20038;-69
2021/06/18 00:53:06;;;;;;;4.70;3.00;;;19.90;61.50;;;;;;4998195;28;20065;-68
2021/06/18 00:55:34;;;;;;;4.40;2.85;;;19.80;61.40;;;;;;4996635;28;20422;-69
2021/06/18 00:58:01;;;;;;;3.28;2.97;;;19.80;61.70;;;;;;5008716;28;20046;-69
2021/06/18 01:00:26;;;;;;;3.15;2.85;;;19.80;61.60;;;;;;4997373;28;20048;-69
2021/06/18 01:02:52;;;;;;;7.10;3.08;;;19.70;61.40;;;;;;4994743;28;20053;-69
2021/06/18 01:05:19;;;;;;;8.93;2.97;;;19.70;61.30;;;;;;4996834;28;20034;-69
2021/06/18 01:08:09;;;;;;;3.05;2.58;;;19.70;61.30;;;;;;4995260;28;20037;-69
2021/06/18 01:11:01;;;;;;;3.05;2.75;;;19.60;61.90;;;;;;4992024;28;20109;-69
2021/06/18 01:13:51;;;;;;;3.35;2.63;;;19.60;61.60;;;;;;4991267;28;20129;-69
2021/06/18 01:16:37;;;;;;;3.15;2.78;;;19.50;62.00;;;;;;5005097;28;20030;-69
2021/06/18 01:19:39;;;;;;;3.05;2.80;;;19.50;62.20;;;;;;4994375;28;20074;-69
2021/06/18 01:22:11;;;;;;;2.80;2.60;;;19.40;62.30;;;;;;4996153;28;20125;-68
2021/06/18 01:24:42;;;;;;;4.22;2.95;;;19.40;61.80;;;;;;4995838;28;20064;-69
2021/06/18 01:27:29;;;;;;;2.70;2.50;;;19.30;62.00;;;;;;4997484;28;20150;-68
2021/06/18 01:29:58;;;;;;;3.15;2.80;;;19.30;62.40;;;;;;4994837;28;20191;-68
2021/06/18 01:32:34;;;;;;;6.20;2.88;;;19.30;61.80;;;;;;4997921;28;20045;-69
2021/06/18 01:35:00;;;;;;;3.15;2.85;;;19.30;62.60;;;;;;4996576;28;20387;-68
2021/06/18 01:37:30;;;;;;;4.47;2.95;;;19.30;61.90;;;;;;5000561;28;20042;-69
2021/06/18 01:39:59;;;;;;;3.20;2.90;;;19.30;62.20;;;;;;4998355;28;20110;-68
2021/06/18 01:42:27;;;;;;;4.93;3.20;;;19.30;62.40;;;;;;4996294;28;20038;-69
2021/06/18 01:44:55;;;;;;;4.47;2.80;;;19.20;62.20;;;;;;4998743;28;20031;-68
2021/06/18 01:47:21;;;;;;;3.83;3.30;;;19.20;62.30;;;;;;4997013;28;20506;-69
2021/06/18 01:49:49;;;;;;;6.07;3.08;;;19.20;62.50;;;;;;4995705;28;20098;-69
2021/06/18 01:52:17;;;;;;;4.70;3.08;;;19.10;62.70;;;;;;4993744;28;20125;-69
2021/06/18 01:54:44;;;;;;;3.30;2.97;;;19.10;62.70;;;;;;4994843;28;20045;-69
2021/06/18 01:57:12;;;;;;;7.43;3.05;;;19.00;62.70;;;;;;4996646;28;20049;-70
2021/06/18 01:59:39;;;;;;;3.38;2.90;;;19.00;62.80;;;;;;4996818;28;20095;-68
2021/06/18 02:02:07;;;;;;;4.32;2.90;;;18.90;62.70;;;;;;4995909;28;20038;-69
2021/06/18 02:04:34;;;;;;;4.55;3.40;;;18.90;62.90;;;;;;4997989;28;20414;-69
2021/06/18 02:07:01;;;;;;;4.22;2.75;;;18.90;62.90;;;;;;4991249;28;20042;-68
2021/06/18 02:09:30;;;;;;;4.45;2.97;;;18.90;62.90;;;;;;4997648;28;20061;-69
2021/06/18 02:11:56;;;;;;;4.75;3.15;;;18.90;63.10;;;;;;5001085;28;20532;-69
2021/06/18 02:14:27;;;;;;;4.95;3.60;;;18.90;63.00;;;;;;4999370;28;20034;-69
2021/06/18 02:17:01;;;;;;;4.47;3.47;;;18.90;63.60;;;;;;5002369;28;20046;-68
2021/06/18 02:19:29;;;;;;;6.05;3.72;;;18.90;63.50;;;;;;5001018;28;20038;-68
2021/06/18 02:21:56;;;;;;;5.22;3.65;;;18.80;63.60;;;;;;4995894;28;20493;-68
2021/06/18 02:24:25;;;;;;;4.18;3.63;;;18.80;63.70;;;;;;5001645;28;20397;-68
2021/06/18 02:26:52;;;;;;;4.32;3.65;;;18.70;63.90;;;;;;5003953;28;20045;-69
2021/06/18 02:29:18;;;;;;;4.10;3.45;;;18.70;65.00;;;;;;4998404;28;20034;-69
2021/06/18 02:31:44;;;;;;;3.75;3.45;;;18.70;64.10;;;;;;4997215;28;20044;-69
2021/06/18 02:34:11;;;;;;;6.28;3.60;;;18.70;64.30;;;;;;5000162;28;20404;-69
2021/06/18 02:36:38;;;;;;;3.45;3.10;;;18.70;64.50;;;;;;4996590;28;20034;-68
2021/06/18 02:39:06;;;;;;;4.13;3.70;;;18.70;65.30;;;;;;5002245;28;20118;-69
2021/06/18 02:41:33;;;;;;;5.20;3.40;;;18.70;64.60;;;;;;4999652;28;20030;-69
2021/06/18 02:44:02;;;;;;;4.15;3.67;;;18.80;64.50;;;;;;4999958;28;20100;-69
2021/06/18 02:46:58;;;;;;;4.07;3.70;;;18.80;64.50;;;;;;4997698;28;20062;-69
2021/06/18 02:49:33;;;;;;;5.57;3.85;;;18.80;65.30;;;;;;4999484;28;20535;-69
2021/06/18 02:52:06;;;;;;;4.50;3.38;;;18.80;64.80;;;;;;4999070;28;20030;-68
2021/06/18 02:54:34;;;;;;;5.45;3.38;;;18.70;65.00;;;;;;4998431;28;20034;-69
2021/06/18 02:57:03;;;;;;;5.30;3.83;;;18.70;64.80;;;;;;5005936;28;20057;-69
2021/06/18 02:59:35;;;;;;;6.57;3.60;;;18.70;64.80;;;;;;5001140;28;20565;-68
2021/06/18 03:02:03;;;;;;;4.10;3.70;;;18.70;64.60;;;;;;4998995;28;20080;-68
2021/06/18 03:04:35;;;;;;;4.05;3.58;;;18.60;64.80;;;;;;4996608;28;20037;-68
2021/06/18 03:07:12;;;;;;;4.40;3.90;;;18.50;65.30;;;;;;5001090;28;20041;-68
2021/06/18 03:09:45;;;;;;;4.78;3.40;;;18.50;66.00;;;;;;5000094;28;20058;-69
2021/06/18 03:12:12;;;;;;;3.92;3.22;;;18.50;65.70;;;;;;5011644;28;20259;-68
2021/06/18 03:14:40;;;;;;;5.03;4.05;;;18.40;65.10;;;;;;4998683;28;20026;-68
2021/06/18 03:17:09;;;;;;;3.75;3.45;;;18.40;65.20;;;;;;5000093;28;20062;-68
2021/06/18 03:19:42;;;;;;;3.97;3.63;;;18.40;65.20;;;;;;4998786;28;20104;-68
2021/06/18 03:22:10;;;;;;;6.45;3.65;;;18.40;66.90;;;;;;4999585;28;20096;-69
2021/06/18 03:24:37;;;;;;;3.72;3.40;;;18.30;65.60;;;;;;4996746;28;20041;-68
2021/06/18 03:27:04;;;;;;;4.22;3.47;;;18.30;65.70;;;;;;4999388;28;20038;-68
2021/06/18 03:29:30;;;;;;;4.57;3.75;;;18.30;65.90;;;;;;4999997;28;20030;-68
2021/06/18 03:31:58;;;;;;;5.30;3.65;;;18.30;66.20;;;;;;4996847;28;20046;-68
2021/06/18 03:34:25;;;;;;;4.38;3.95;;;18.20;67.30;;;;;;4995043;28;20038;-68
2021/06/18 03:36:52;;;;;;;4.50;3.90;;;18.20;66.40;;;;;;4996968;28;20825;-68
2021/06/18 03:39:20;;;;;;;7.60;4.13;;;18.20;66.20;;;;;;4997528;28;20925;-68
2021/06/18 03:41:46;;;;;;;4.80;4.10;;;18.10;66.20;;;;;;4995078;28;20058;-68
2021/06/18 03:44:12;;;;;;;5.07;4.25;;;18.20;66.20;;;;;;4993445;28;20066;-68
2021/06/18 03:46:39;;;;;;;5.82;3.75;;;18.10;66.50;;;;;;4993133;28;20030;-69
2021/06/18 03:49:07;;;;;;;5.68;3.97;;;18.10;66.70;;;;;;4994634;28;20038;-68
2021/06/18 03:51:35;;;;;;;5.97;4.30;;;18.10;66.80;;;;;;4998457;28;20121;-68
2021/06/18 03:54:02;;;;;;;4.25;3.72;;;18.10;67.10;;;;;;5000284;28;20109;-68
2021/06/18 03:56:30;;;;;;;4.35;3.97;;;18.10;66.70;;;;;;4992912;28;20088;-69
2021/06/18 03:58:57;;;;;;;5.78;3.67;;;18.20;67.10;;;;;;4994894;28;20114;-68
2021/06/18 04:01:25;;;;;;;4.15;3.47;;;18.20;66.70;;;;;;4996405;28;20414;-69
2021/06/18 04:03:53;;;;;;;7.38;3.85;;;18.20;66.90;;;;;;4997762;28;20502;-68
2021/06/18 04:06:19;;;;;;;4.50;3.50;;;18.30;66.90;;;;;;4996138;28;20055;-69
2021/06/18 04:08:46;;;;;;;5.45;3.50;;;18.30;66.60;;;;;;4997904;28;20030;-69
2021/06/18 04:11:13;;;;;;;4.35;3.95;;;18.40;66.50;;;;;;4992822;28;20029;-69
2021/06/18 04:13:40;;;;;;;6.80;4.00;;;18.40;66.50;;;;;;4999769;28;20068;-69
2021/06/18 04:16:10;;;;;;;4.22;3.88;;;18.40;66.20;;;;;;4996716;28;20065;-68
2021/06/18 04:18:39;;;;;;;5.70;4.20;;;18.50;66.50;;;;;;4997111;28;20553;-68
2021/06/18 04:21:07;;;;;;;5.82;3.83;;;18.50;66.40;;;;;;4992841;28;20030;-68
2021/06/18 04:23:33;;;;;;;4.45;4.07;;;18.50;66.20;;;;;;4996134;28;20034;-69
2021/06/18 04:26:00;;;;;;;6.90;3.97;;;18.50;66.20;;;;;;4997424;28;20046;-68
2021/06/18 04:28:26;;;;;;;5.18;4.13;;;18.50;66.20;;;;;;5002902;28;20047;-69
2021/06/18 04:30:52;;;;;;;5.18;4.10;;;18.50;66.50;;;;;;4999366;28;20104;-69
2021/06/18 04:33:18;;;;;;;5.82;3.80;;;18.50;66.50;;;;;;4997215;28;20505;-68
2021/06/18 04:35:44;;;;;;;4.25;3.85;;;18.40;66.60;;;;;;4998081;28;20026;-69
2021/06/18 04:38:09;;;;;;;5.35;3.97;;;18.40;66.70;;;;;;4997036;28;20060;-69
2021/06/18 04:40:36;;;;;;;4.18;3.88;;;18.50;67.20;;;;;;4998514;28;20995;-68
2021/06/18 04:43:02;;;;;;;4.75;4.28;;;18.50;67.30;;;;;;5002178;28;20034;-69
2021/06/18 04:45:28;;;;;;;4.25;3.83;;;18.50;67.40;;;;;;4997134;28;20455;-68
2021/06/18 04:47:55;;;;;;;5.35;3.83;;;18.60;67.20;;;;;;4998629;28;20046;-69
2021/06/18 04:50:21;;;;;;;4.72;4.03;;;18.60;67.10;;;;;;4999422;28;20033;-69
2021/06/18 04:52:47;;;;;;;4.75;4.35;;;18.60;67.60;;;;;;4995792;28;20030;-69
2021/06/18 04:55:16;;;;;;;4.78;4.22;;;18.60;67.80;;;;;;4999094;28;20039;-68
2021/06/18 04:57:46;;;;;;;4.68;4.28;;;18.60;68.00;;;;;;4996908;28;20042;-69
2021/06/18 05:00:13;;;;;;;5.07;4.53;;;18.70;68.10;;;;;;5004341;28;20053;-69
2021/06/18 05:02:39;;;;;;;4.88;4.30;;;18.80;68.30;;;;;;5001874;28;20473;-69
2021/06/18 05:05:05;;;;;;;4.97;4.47;;;18.80;68.30;;;;;;4996667;28;20066;-69
2021/06/18 05:07:31;;;;;;;6.22;4.75;;;18.90;68.30;;;;;;4994556;28;20055;-69
2021/06/18 05:09:56;;;;;;;5.35;4.20;;;18.90;68.60;;;;;;4999474;28;20034;-69
2021/06/18 05:12:22;;;;;;;5.47;4.93;;;19.00;68.50;;;;;;4994610;28;20124;-69
2021/06/18 05:14:49;;;;;;;6.07;4.68;;;19.00;68.10;;;;;;4999506;28;20520;-69
2021/06/18 05:17:14;;;;;;;6.82;5.28;;;19.10;68.20;;;;;;4996475;28;20038;-69
2021/06/18 05:19:40;;;;;;;9.57;5.03;;;19.20;68.00;;;;;;4999594;28;20038;-69
2021/06/18 05:22:06;;;;;;;10.43;4.75;;;19.30;67.60;;;;;;4998051;28;20037;-69
2021/06/18 05:24:32;;;;;;;8.27;4.70;;;19.40;67.50;;;;;;4994329;28;20408;-69
2021/06/18 05:26:58;;;;;;;9.85;4.60;;;19.50;67.40;;;;;;4998385;28;20046;-69
2021/06/18 05:29:24;;;;;;;9.80;5.35;;;19.70;67.80;;;;;;4995836;28;20040;-68
2021/06/18 05:31:50;;;;;;;7.03;4.35;;;19.80;68.30;;;;;;4998735;28;20069;-69
2021/06/18 05:34:15;;;;;;;7.70;4.93;;;19.90;68.30;;;;;;4996806;28;20045;-69
2021/06/18 05:36:44;;;;;;;9.35;4.68;;;20.00;68.10;;;;;;4996637;28;20141;-69
2021/06/18 05:39:14;;;;;;;19.40;5.40;;;20.10;67.60;;;;;;5006170;28;20386;-69
2021/06/18 05:41:41;;;;;;;15.20;4.93;;;20.30;67.10;;;;;;4995569;28;20030;-69
2021/06/18 05:44:07;;;;;;;14.02;4.60;;;20.30;66.10;;;;;;4995496;28;20038;-69
2021/06/18 05:46:32;;;;;;;20.90;4.95;;;20.50;66.20;;;;;;5001642;28;20394;-69
2021/06/18 05:48:58;;;;;;;8.60;4.95;;;20.60;66.20;;;;;;4999783;28;20036;-69
2021/06/18 05:51:24;;;;;;;5.70;4.57;;;20.70;66.50;;;;;;5002998;28;20453;-69
2021/06/18 05:53:50;;;;;;;7.53;5.28;;;20.80;65.40;;;;;;5008132;28;20030;-69
2021/06/18 05:56:16;;;;;;;6.15;5.40;;;20.90;64.60;;;;;;5001134;28;20096;-69
2021/06/18 05:58:42;;;;;;;8.93;5.07;;;21.00;64.10;;;;;;4999825;28;20565;-69
2021/06/18 06:01:07;;;;;;;7.85;4.70;;;21.10;65.20;;;;;;4999816;28;20084;-69
2021/06/18 06:03:34;;;;;;;6.78;5.20;;;21.20;64.40;;;;;;5001103;28;20400;-69
2021/06/18 06:06:00;;;;;;;6.90;4.70;;;21.30;64.00;;;;;;5001144;28;20039;-69
2021/06/18 06:08:26;;;;;;;7.13;4.70;;;21.40;63.80;;;;;;5000343;28;20048;-69
2021/06/18 06:10:52;;;;;;;4.68;4.28;;;21.50;64.10;;;;;;4999873;28;20065;-69
2021/06/18 06:13:20;;;;;;;4.32;4.03;;;21.60;62.80;;;;;;4999432;28;20465;-69
2021/06/18 06:15:47;;;;;;;5.75;4.10;;;21.70;62.30;;;;;;5001802;28;20034;-69
2021/06/18 06:18:13;;;;;;;5.53;4.07;;;21.80;62.20;;;;;;5001114;28;20537;-69
2021/06/18 06:20:41;;;;;;;6.18;4.18;;;21.90;61.70;;;;;;5000784;28;20038;-69
2021/06/18 06:23:07;;;;;;;6.43;4.40;;;22.00;61.40;;;;;;4998799;28;20092;-69
2021/06/18 06:25:32;;;;;;;5.43;4.15;;;22.10;61.40;;;;;;4999811;28;20038;-69
2021/06/18 06:27:58;;;;;;;4.22;3.83;;;22.20;61.40;;;;;;5000904;28;20497;-69
2021/06/18 06:30:24;;;;;;;4.70;3.45;;;22.30;60.50;;;;;;5001283;28;20031;-69
2021/06/18 06:32:50;;;;;;;4.93;3.45;;;22.40;60.70;;;;;;4999713;28;20042;-69
2021/06/18 06:35:16;;;;;;;5.55;3.63;;;22.40;60.30;;;;;;5001074;28;20096;-69
2021/06/18 06:37:42;;;;;;;4.75;3.80;;;22.60;60.20;;;;;;4999006;28;20030;-69
2021/06/18 06:40:12;;;;;;;6.93;3.78;;;22.60;59.60;;;;;;4997435;28;20046;-69
2021/06/18 06:42:37;;;;;;;4.20;3.78;;;22.70;59.20;;;;;;4999918;28;20061;-67
2021/06/18 06:45:05;;;;;;;4.88;4.07;;;22.80;59.40;;;;;;4999896;28;20066;-66
2021/06/18 06:47:30;;;;;;;4.40;4.05;;;22.90;59.40;;;;;;5002029;28;20104;-67
2021/06/18 06:49:56;;;;;;;4.05;3.75;;;22.90;59.30;;;;;;4999615;28;20069;-67
2021/06/18 06:52:21;;;;;;;8.68;4.50;;;23.00;59.30;;;;;;5006535;28;20589;-67
2021/06/18 06:54:47;;;;;;;4.35;3.95;;;23.10;59.20;;;;;;4997757;28;20038;-67
2021/06/18 06:57:16;;;;;;;4.32;3.95;;;23.10;59.20;;;;;;4999593;28;20405;-67
2021/06/18 06:59:42;;;;;;;4.30;3.90;;;23.20;59.10;;;;;;5000136;28;20034;-67
2021/06/18 07:02:07;;;;;;;6.20;3.95;;;23.30;59.10;;;;;;4991913;28;20049;-67
2021/06/18 07:04:33;;;;;;;4.95;4.10;;;23.40;59.00;;;;;;4997773;28;20039;-67
2021/06/18 07:06:59;;;;;;;4.47;3.75;;;23.50;58.90;;;;;;4998515;28;20405;-67
2021/06/18 07:09:25;;;;;;;7.45;3.95;;;23.60;58.60;;;;;;5001826;28;20272;-67
2021/06/18 07:11:50;;;;;;;7.10;3.80;;;23.70;58.40;;;;;;4996298;28;20116;-67
2021/06/18 07:14:16;;;;;;;4.95;3.85;;;23.80;58.10;;;;;;4999215;28;20034;-67
2021/06/18 07:16:41;;;;;;;6.57;3.88;;;23.90;57.80;;;;;;4999993;28;20223;-67
2021/06/18 07:19:07;;;;;;;4.35;3.95;;;24.00;57.80;;;;;;5003698;28;20042;-67
2021/06/18 07:21:33;;;;;;;4.15;3.75;;;24.10;57.40;;;;;;4999806;28;20549;-67
2021/06/18 07:23:59;;;;;;;5.55;4.00;;;24.30;56.20;;;;;;4997750;28;20429;-67
2021/06/18 07:26:25;;;;;;;5.05;4.22;;;24.30;56.10;;;;;;4998924;28;20405;-67
2021/06/18 07:28:51;;;;;;;3.55;3.25;;;24.50;55.90;;;;;;4999788;28;20490;-67
2021/06/18 07:31:17;;;;;;;4.28;3.88;;;24.50;56.00;;;;;;4998484;28;20121;-67
2021/06/18 07:33:42;;;;;;;5.32;3.80;;;24.70;55.90;;;;;;5004891;28;20041;-67
2021/06/18 07:36:08;;;;;;;5.47;3.85;;;24.80;55.80;;;;;;5004326;28;20122;-67
2021/06/18 07:38:34;;;;;;;4.60;3.38;;;24.90;55.30;;;;;;5003114;28;20398;-67
2021/06/18 07:41:00;;;;;;;5.78;4.13;;;25.10;54.80;;;;;;4997713;28;20037;-67
2021/06/18 07:43:25;;;;;;;3.45;3.25;;;25.20;52.90;;;;;;4997982;28;20105;-67
2021/06/18 07:45:51;;;;;;;5.20;3.47;;;25.30;53.40;;;;;;4999228;28;20498;-67
2021/06/18 07:48:18;;;;;;;3.60;3.28;;;25.40;53.30;;;;;;4999798;28;20062;-67
2021/06/18 07:50:43;;;;;;;5.50;3.80;;;25.50;53.00;;;;;;4997672;28;20034;-67
2021/06/18 07:53:10;;;;;;;3.65;2.92;;;25.60;53.00;;;;;;5002213;28;20034;-67
2021/06/18 07:55:35;;;;;;;4.05;3.13;;;25.70;53.00;;;;;;4997888;28;20058;-67
2021/06/18 07:58:01;;;;;;;4.38;3.22;;;25.80;53.10;;;;;;4998719;28;20596;-67
2021/06/18 08:00:27;;;;;;;5.18;3.60;;;25.90;53.00;;;;;;4998582;28;20050;-67
2021/06/18 08:02:53;;;;;;;7.03;3.30;;;26.00;52.60;;;;;;4999854;28;20038;-67
2021/06/18 08:05:19;;;;;;;3.67;3.38;;;26.20;52.80;;;;;;4997854;28;20417;-67
2021/06/18 08:07:47;;;;;;;4.70;3.47;;;26.30;52.80;;;;;;4997846;28;20124;-67
2021/06/18 08:10:15;;;;;;;4.88;3.13;;;26.40;52.60;;;;;;4997440;28;20038;-67
2021/06/18 08:12:42;;;;;;;5.72;3.00;;;26.50;52.10;;;;;;4997004;28;20046;-67
2021/06/18 08:15:08;;;;;;;6.35;3.28;;;26.70;52.30;;;;;;4997957;28;20121;-67
2021/06/18 08:17:34;;;;;;;4.78;3.38;;;26.80;52.30;;;;;;4998665;28;20046;-67
2021/06/18 08:20:01;;;;;;;5.22;3.45;;;27.00;52.30;;;;;;4997939;28;20030;-67
2021/06/18 08:22:26;;;;;;;4.03;3.60;;;27.10;52.00;;;;;;4998126;28;20038;-67
2021/06/18 08:24:52;;;;;;;5.97;3.42;;;27.20;51.80;;;;;;4996456;28;20393;-67
2021/06/18 08:27:18;;;;;;;5.03;3.80;;;27.30;51.30;;;;;;4996179;28;20089;-67
2021/06/18 08:29:43;;;;;;;6.13;3.42;;;27.50;51.40;;;;;;5004561;28;20379;-67
2021/06/18 08:32:09;;;;;;;6.90;3.63;;;27.50;51.50;;;;;;4998870;28;20061;-67
2021/06/18 08:34:35;;;;;;;3.65;3.30;;;27.70;51.40;;;;;;4997587;28;20535;-67
2021/06/18 08:37:01;;;;;;;5.97;3.47;;;27.80;52.10;;;;;;4997564;28;20125;-68
2021/06/18 08:39:26;;;;;;;4.85;3.63;;;27.90;51.50;;;;;;4999311;28;20057;-67
2021/06/18 08:41:52;;;;;;;9.25;3.90;;;28.10;51.40;;;;;;4993563;28;20528;-67
2021/06/18 08:44:19;;;;;;;5.88;3.58;;;28.20;50.90;;;;;;4996920;28;20401;-67
2021/06/18 08:46:46;;;;;;;5.15;3.55;;;28.30;50.60;;;;;;4997394;28;20092;-67
2021/06/18 08:49:12;;;;;;;6.70;3.50;;;28.40;50.30;;;;;;4997273;28;20062;-67
2021/06/18 08:51:38;;;;;;;5.47;3.50;;;28.60;50.30;;;;;;4998108;28;20533;-67
2021/06/18 08:54:04;;;;;;;5.03;3.17;;;28.70;50.00;;;;;;5000372;28;20042;-67
2021/06/18 08:56:29;;;;;;;5.15;3.65;;;28.80;49.50;;;;;;4996848;28;20034;-67
2021/06/18 08:58:55;;;;;;;3.90;3.55;;;28.90;49.10;;;;;;4997218;28;20046;-67
2021/06/18 09:01:21;;;;;;;3.42;3.13;;;29.00;49.10;;;;;;4998209;28;20061;-67
2021/06/18 09:03:48;;;;;;;4.03;3.22;;;29.10;49.20;;;;;;4998885;28;20054;-67
2021/06/18 09:06:28;;;;;;;8.13;3.42;;;29.20;49.30;;;;;;4998271;28;20035;-68
2021/06/18 09:09:14;;;;;;;3.85;3.33;;;29.40;48.90;;;;;;4993774;28;20057;-68
2021/06/18 09:11:43;;;;;;;5.07;3.03;;;29.50;48.00;;;;;;4993999;28;20512;-68
2021/06/18 09:14:29;;;;;;;8.20;3.30;;;29.60;47.90;;;;;;4993591;28;20030;-67
2021/06/18 09:17:05;;;;;;;3.80;3.22;;;29.70;46.90;;;;;;4997565;28;20026;-67
2021/06/18 09:19:31;;;;;;;4.82;2.85;;;29.80;46.80;;;;;;4997236;28;20092;-67
2021/06/18 09:22:01;;;;;;;5.07;2.88;;;29.80;47.00;;;;;;4997468;28;20413;-68
2021/06/18 09:24:30;;;;;;;10.93;3.30;;;29.90;46.20;;;;;;4995895;28;20038;-68
2021/06/18 09:26:56;;;;;;;4.30;3.03;;;30.00;46.60;;;;;;4998723;28;20089;-68
2021/06/18 09:29:22;;;;;;;3.58;2.67;;;30.10;46.50;;;;;;4996301;28;20461;-68
2021/06/18 09:32:09;;;;;;;5.47;3.10;;;30.20;45.90;;;;;;4996671;28;20172;-67
2021/06/18 09:35:17;;;;;;;2.70;2.50;;;30.30;45.50;;;;;;4996394;28;20541;-68
2021/06/18 09:37:23;;;;;;;7.72;2.95;;;30.30;44.60;;;;;;4997533;28;20049;-68
2021/06/18 09:40:19;;;;;;;3.80;3.50;;;30.40;45.00;;;;;;5002041;28;20040;-68
2021/06/18 09:42:44;;;;;;;3.50;2.90;;;30.60;45.00;;;;;;4996357;28;20049;-71
2021/06/18 09:45:12;;;;;;;3.60;2.63;;;30.70;45.50;;;;;;4994522;28;20034;-70
2021/06/18 09:47:39;;;;;;;4.03;3.60;;;30.80;45.00;;;;;;4998133;28;20096;-70
2021/06/18 09:50:15;;;;;;;4.30;2.90;;;30.90;44.30;;;;;;4996447;28;20041;-70
2021/06/18 09:52:44;;;;;;;3.42;3.00;;;31.00;44.10;;;;;;4997845;28;20068;-70
2021/06/18 09:55:22;;;;;;;3.35;2.80;;;31.10;43.10;;;;;;4995045;28;20031;-71
2021/06/18 09:57:55;;;;;;;3.28;2.85;;;31.20;42.60;;;;;;4997136;28;20084;-71
2021/06/18 10:00:26;;;;;;;9.27;3.10;;;31.20;43.10;;;;;;4997986;28;20035;-68
2021/06/18 10:02:53;;;;;;;5.07;2.58;;;31.40;43.20;;;;;;4992588;28;20117;-68
2021/06/18 10:05:28;;;;;;;4.22;2.70;;;31.40;43.40;;;;;;4997667;28;20036;-68
2021/06/18 10:07:56;;;;;;;3.20;2.63;;;31.60;41.70;;;;;;4996173;28;20046;-68
2021/06/18 10:10:35;;;;;;;3.13;2.40;;;31.70;41.80;;;;;;4997247;28;20042;-68
2021/06/18 10:13:02;;;;;;;3.53;2.30;;;31.80;41.30;;;;;;4997055;28;20080;-68
2021/06/18 10:15:31;;;;;;;7.97;2.70;;;31.90;42.10;;;;;;4997543;28;20446;-68
2021/06/18 10:17:58;;;;;;;5.03;2.72;;;32.00;41.60;;;;;;4999158;28;20069;-68
2021/06/18 10:20:33;;;;;;;5.13;2.60;;;32.10;42.20;;;;;;4998377;28;20125;-68
2021/06/18 10:23:07;;;;;;;6.43;2.60;;;32.20;40.30;;;;;;4997190;28;20095;-68
2021/06/18 10:25:36;;;;;;;3.35;2.65;;;32.30;40.60;;;;;;4995858;28;20664;-68
2021/06/18 10:28:11;;;;;;;7.60;2.72;;;32.30;40.60;;;;;;4997146;28;20096;-68
2021/06/18 10:30:48;;;;;;;2.83;2.60;;;32.40;41.00;;;;;;4997679;28;20030;-68
2021/06/18 10:33:26;;;;;;;5.32;2.63;;;32.50;40.30;;;;;;4997042;28;20413;-68
2021/06/18 10:36:10;;;;;;;2.88;2.42;;;32.50;40.30;;;;;;5000387;28;20573;-68
2021/06/18 10:38:40;;;;;;;2.65;2.42;;;32.60;40.00;;;;;;5000439;28;20501;-68
2021/06/18 10:41:18;;;;;;;4.00;2.85;;;32.60;39.50;;;;;;4998975;28;20057;-69
2021/06/18 10:43:49;;;;;;;3.60;3.30;;;32.70;39.30;;;;;;4998765;28;20113;-68
2021/06/18 10:46:19;;;;;;;3.28;2.60;;;32.80;39.00;;;;;;5000467;28;20532;-68
2021/06/18 10:48:51;;;;;;;2.45;2.33;;;32.90;38.60;;;;;;5000356;28;20026;-68
2021/06/18 10:51:26;;;;;;;2.72;2.53;;;32.90;37.60;;;;;;5000407;28;20401;-68
2021/06/18 10:54:01;;;;;;;2.67;2.47;;;33.00;37.70;;;;;;5001298;28;20037;-68
2021/06/18 10:56:45;;;;;;;2.72;2.17;;;33.00;38.50;;;;;;4999688;28;20185;-68
2021/06/18 10:59:15;;;;;;;2.67;2.30;;;33.10;38.50;;;;;;5000779;28;20029;-68
2021/06/18 11:01:42;;;;;;;2.03;1.88;;;33.10;38.10;;;;;;4998550;28;20053;-68
2021/06/18 11:04:08;;;;;;;2.53;2.20;;;33.20;37.00;;;;;;4998228;28;20514;-68
2021/06/18 11:06:44;;;;;;;2.70;2.00;;;33.20;36.30;;;;;;5004892;28;20110;-68
2021/06/18 11:09:30;;;;;;;3.95;2.30;;;33.20;35.60;;;;;;4999780;28;20102;-68
2021/06/18 11:11:56;;;;;;;2.25;2.10;;;33.20;36.40;;;;;;4994221;28;20149;-68
2021/06/18 11:14:36;;;;;;;2.55;2.22;;;33.20;36.70;;;;;;4998277;28;20038;-68
2021/06/18 11:17:02;;;;;;;2.85;1.95;;;33.30;36.50;;;;;;4999033;28;20027;-68
2021/06/18 11:19:28;;;;;;;2.08;1.35;;;33.40;35.10;;;;;;4999375;28;20049;-68
2021/06/18 11:21:55;;;;;;;2.28;1.75;;;33.40;34.10;;;;;;4998443;28;20508;-68
2021/06/18 11:24:42;;;;;;;2.65;2.08;;;33.50;34.00;;;;;;5000131;28;20029;-68
2021/06/18 11:27:26;;;;;;;6.70;2.30;;;33.50;34.00;;;;;;5000393;28;20544;-68
2021/06/18 11:30:26;;;;;;;2.15;1.95;;;33.60;34.90;;;;;;4999537;28;20038;-68
2021/06/18 11:32:52;;;;;;;3.92;2.03;;;33.60;34.30;;;;;;4997548;28;20034;-68
2021/06/18 11:35:33;;;;;;;2.15;1.80;;;33.60;35.10;;;;;;4998616;28;20038;-68
2021/06/18 11:38:00;;;;;;;2.28;2.08;;;33.60;33.30;;;;;;4997715;28;20374;-68
2021/06/18 11:40:26;;;;;;;3.38;1.85;;;33.60;33.80;;;;;;4998107;28;20042;-68
2021/06/18 11:42:51;;;;;;;2.25;2.08;;;33.60;33.60;;;;;;4998434;28;20405;-68
2021/06/18 11:45:17;;;;;;;3.10;2.17;;;33.60;33.80;;;;;;4997386;28;20034;-68
2021/06/18 11:47:43;;;;;;;2.20;1.80;;;33.60;34.00;;;;;;5000196;28;20046;-68
2021/06/18 11:50:09;;;;;;;2.15;1.95;;;33.60;34.20;;;;;;5004761;28;20027;-68
2021/06/18 11:52:35;;;;;;;2.17;2.00;;;33.60;33.30;;;;;;4998396;28;20117;-68
2021/06/18 11:55:01;;;;;;;2.13;1.85;;;33.60;33.00;;;;;;5006473;28;20133;-68
2021/06/18 11:57:27;;;;;;;2.63;1.90;;;33.60;33.30;;;;;;4998719;28;20516;-68
2021/06/18 11:59:57;;;;;;;5.78;2.10;;;33.60;32.60;;;;;;5000013;28;20030;-68
2021/06/18 12:02:29;;;;;;;2.65;1.80;;;33.50;32.00;;;;;;4998898;28;20037;-68
2021/06/18 12:05:03;;;;;;;5.13;2.10;;;33.50;32.60;;;;;;4998633;28;20030;-68
2021/06/18 12:07:32;;;;;;;3.40;2.17;;;33.50;32.90;;;;;;4998733;28;20124;-68
2021/06/18 12:09:59;;;;;;;7.35;1.90;;;33.60;33.10;;;;;;4999111;28;20382;-68
2021/06/18 12:12:25;;;;;;;2.30;2.10;;;33.60;34.70;;;;;;4995384;28;20088;-68
2021/06/18 12:14:57;;;;;;;4.28;2.08;;;33.60;33.50;;;;;;4999015;28;20030;-68
2021/06/18 12:17:25;;;;;;;2.47;2.22;;;33.70;33.10;;;;;;4998477;28;20042;-68
2021/06/18 12:19:50;;;;;;;4.32;2.30;;;33.80;33.10;;;;;;4998112;28;20047;-68
2021/06/18 12:22:24;;;;;;;4.47;2.17;;;33.80;33.00;;;;;;4998019;28;20096;-68
2021/06/18 12:24:58;;;;;;;2.08;1.90;;;33.80;32.00;;;;;;4998387;28;20041;-68
2021/06/18 12:27:32;;;;;;;1.98;1.85;;;33.90;32.30;;;;;;4996797;28;20044;-69
2021/06/18 12:30:00;;;;;;;4.82;1.83;;;33.90;32.00;;;;;;4999283;28;20747;-68
2021/06/18 12:32:30;;;;;;;3.78;3.33;;;34.00;32.40;;;;;;4997199;28;20510;-68
2021/06/18 12:35:03;;;;;;;8.00;2.20;;;34.00;32.10;;;;;;4998771;28;20046;-68
2021/06/18 12:37:34;;;;;;;4.43;1.90;;;34.10;32.00;;;;;;5003296;28;20038;-68
2021/06/18 12:40:07;;;;;;;4.57;1.90;;;34.20;31.50;;;;;;4997479;28;20379;-68
2021/06/18 12:42:47;;;;;;;2.58;2.00;;;34.20;31.80;;;;;;4997950;28;20034;-68
2021/06/18 12:45:30;;;;;;;6.07;2.10;;;34.30;31.90;;;;;;4997139;28;20520;-68
2021/06/18 12:48:15;;;;;;;2.05;1.85;;;34.30;31.30;;;;;;4999137;28;20049;-68
2021/06/18 12:50:54;;;;;;;2.15;1.95;;;34.30;31.60;;;;;;4997765;28;20041;-68
2021/06/18 12:53:42;;;;;;;3.90;1.73;;;34.20;31.20;;;;;;4997142;28;20030;-68
2021/06/18 12:56:10;;;;;;;3.28;1.95;;;34.20;31.60;;;;;;4998597;28;20472;-68